sensor_id;sensor_type;location;lat;lon;timestamp;P1;durP1;ratioP1;P2;durP2;ratioP2
56271;SDS011;42177;48.914;18.160;2022-07-05T00:02:27;4.6;;;3;;
56271;SDS011;42177;48.914;18.160;2022-07-05T00:07:27;5.5;;;3.1;;
56271;SDS011;42177;48.914;18.160;2022-07-05T00:12:31;5.5;;;3.1;;
56271;SDS011;42177;48.914;18.160;2022-07-05T00:17:27;4.8;;;3.1;;
56271;SDS011;42177;48.914;18.160;2022-07-05T00:22:27;4.8;;;3.1;;
56271;SDS011;42177;48.914;18.160;2022-07-05T00:27:27;4.3;;;2.9;;
56271;SDS011;42177;48.914;18.160;2022-07-05T00:32:27;4.3;;;2.9;;
56271;SDS011;42177;48.914;18.160;2022-07-05T00:37:27;2.9;;;2.6;;
56271;SDS011;42177;48.914;18.160;2022-07-05T00:42:28;2.9;;;2.6;;
56271;SDS011;42177;48.914;18.160;2022-07-05T00:47:27;8.2;;;5.2;;
56271;SDS011;42177;48.914;18.160;2022-07-05T00:52:28;8.2;;;5.2;;
56271;SDS011;42177;48.914;18.160;2022-07-05T00:57:27;5.2;;;3.8;;
56271;SDS011;42177;48.914;18.160;2022-07-05T01:02:27;5.2;;;3.8;;
56271;SDS011;42177;48.914;18.160;2022-07-05T01:07:28;5.2;;;3.1;;
56271;SDS011;42177;48.914;18.160;2022-07-05T01:12:27;5.2;;;3.1;;
56271;SDS011;42177;48.914;18.160;2022-07-05T01:17:27;3.6;;;2.7;;
56271;SDS011;42177;48.914;18.160;2022-07-05T01:27:27;5.4;;;2.7;;
56271;SDS011;42177;48.914;18.160;2022-07-05T01:32:27;5.4;;;2.7;;
56271;SDS011;42177;48.914;18.160;2022-07-05T01:37:28;3.4;;;2.5;;
56271;SDS011;42177;48.914;18.160;2022-07-05T01:42:27;3.4;;;2.5;;
56271;SDS011;42177;48.914;18.160;2022-07-05T01:47:27;5.8;;;2.9;;
56271;SDS011;42177;48.914;18.160;2022-07-05T01:52:27;5.8;;;2.9;;
56271;SDS011;42177;48.914;18.160;2022-07-05T01:57:27;3.9;;;2.8;;
56271;SDS011;42177;48.914;18.160;2022-07-05T02:02:27;3.9;;;2.8;;
56271;SDS011;42177;48.914;18.160;2022-07-05T02:07:27;3.1;;;2.7;;
56271;SDS011;42177;48.914;18.160;2022-07-05T02:12:27;3.1;;;2.7;;
56271;SDS011;42177;48.914;18.160;2022-07-05T02:17:27;5.8;;;2.9;;
56271;SDS011;42177;48.914;18.160;2022-07-05T02:22:27;5.8;;;2.9;;
56271;SDS011;42177;48.914;18.160;2022-07-05T02:27:27;5.5;;;2.7;;
56271;SDS011;42177;48.914;18.160;2022-07-05T02:32:27;5.5;;;2.7;;
56271;SDS011;42177;48.914;18.160;2022-07-05T02:37:27;5;;;2.9;;
56271;SDS011;42177;48.914;18.160;2022-07-05T02:42:27;5;;;2.9;;
56271;SDS011;42177;48.914;18.160;2022-07-05T02:47:29;6.6;;;3.2;;
56271;SDS011;42177;48.914;18.160;2022-07-05T02:52:27;6.6;;;3.2;;
56271;SDS011;42177;48.914;18.160;2022-07-05T02:57:27;5;;;3;;
56271;SDS011;42177;48.914;18.160;2022-07-05T03:02:27;5;;;3;;
56271;SDS011;42177;48.914;18.160;2022-07-05T03:07:27;5.6;;;3.2;;
56271;SDS011;42177;48.914;18.160;2022-07-05T03:12:27;5.6;;;3.2;;
56271;SDS011;42177;48.914;18.160;2022-07-05T03:17:27;4.8;;;3.2;;
56271;SDS011;42177;48.914;18.160;2022-07-05T03:22:28;4.8;;;3.2;;
56271;SDS011;42177;48.914;18.160;2022-07-05T03:27:27;3.9;;;3.1;;
56271;SDS011;42177;48.914;18.160;2022-07-05T03:32:27;3.9;;;3.1;;
56271;SDS011;42177;48.914;18.160;2022-07-05T03:37:27;20.8;;;3.3;;
56271;SDS011;42177;48.914;18.160;2022-07-05T03:42:27;20.8;;;3.3;;
56271;SDS011;42177;48.914;18.160;2022-07-05T03:47:27;5.7;;;4.1;;
56271;SDS011;42177;48.914;18.160;2022-07-05T03:52:27;5.7;;;4.1;;
56271;SDS011;42177;48.914;18.160;2022-07-05T03:57:27;4.5;;;3.5;;
56271;SDS011;42177;48.914;18.160;2022-07-05T04:02:27;4.5;;;3.5;;
56271;SDS011;42177;48.914;18.160;2022-07-05T04:07:27;6.2;;;3.7;;
56271;SDS011;42177;48.914;18.160;2022-07-05T04:12:27;6.2;;;3.7;;
56271;SDS011;42177;48.914;18.160;2022-07-05T04:17:27;5.1;;;4;;
56271;SDS011;42177;48.914;18.160;2022-07-05T04:22:27;5.1;;;4;;
56271;SDS011;42177;48.914;18.160;2022-07-05T04:27:27;5.4;;;4.1;;
56271;SDS011;42177;48.914;18.160;2022-07-05T04:32:27;5.4;;;4.1;;
56271;SDS011;42177;48.914;18.160;2022-07-05T04:37:27;8.1;;;4.8;;
56271;SDS011;42177;48.914;18.160;2022-07-05T04:42:27;8.1;;;4.8;;
56271;SDS011;42177;48.914;18.160;2022-07-05T04:47:28;5.9;;;4.5;;
56271;SDS011;42177;48.914;18.160;2022-07-05T04:52:27;5.9;;;4.5;;
56271;SDS011;42177;48.914;18.160;2022-07-05T04:57:27;7.4;;;4.5;;
56271;SDS011;42177;48.914;18.160;2022-07-05T05:02:27;7.4;;;4.5;;
56271;SDS011;42177;48.914;18.160;2022-07-05T05:07:27;7.3;;;4.6;;
56271;SDS011;42177;48.914;18.160;2022-07-05T05:12:27;7.3;;;4.6;;
56271;SDS011;42177;48.914;18.160;2022-07-05T05:17:33;5.8;;;4.4;;
56271;SDS011;42177;48.914;18.160;2022-07-05T05:22:27;5.8;;;4.4;;
56271;SDS011;42177;48.914;18.160;2022-07-05T05:27:27;6.2;;;4.8;;
56271;SDS011;42177;48.914;18.160;2022-07-05T05:32:27;6.2;;;4.8;;
56271;SDS011;42177;48.914;18.160;2022-07-05T05:37:27;7.9;;;5.1;;
56271;SDS011;42177;48.914;18.160;2022-07-05T05:42:27;7.9;;;5.1;;
56271;SDS011;42177;48.914;18.160;2022-07-05T05:47:28;7.1;;;5.7;;
56271;SDS011;42177;48.914;18.160;2022-07-05T05:52:27;7.1;;;5.7;;
56271;SDS011;42177;48.914;18.160;2022-07-05T05:57:28;10.7;;;6.1;;
56271;SDS011;42177;48.914;18.160;2022-07-05T06:02:28;10.7;;;6.1;;
56271;SDS011;42177;48.914;18.160;2022-07-05T06:07:27;8.3;;;5.5;;
56271;SDS011;42177;48.914;18.160;2022-07-05T06:12:27;8.3;;;5.5;;
56271;SDS011;42177;48.914;18.160;2022-07-05T06:17:28;8.9;;;6.1;;
56271;SDS011;42177;48.914;18.160;2022-07-05T06:22:28;8.9;;;6.1;;
56271;SDS011;42177;48.914;18.160;2022-07-05T06:27:27;9.3;;;5.9;;
56271;SDS011;42177;48.914;18.160;2022-07-05T06:32:28;9.3;;;5.9;;
56271;SDS011;42177;48.914;18.160;2022-07-05T06:37:28;8.4;;;5.6;;
56271;SDS011;42177;48.914;18.160;2022-07-05T06:42:28;8.4;;;5.6;;
56271;SDS011;42177;48.914;18.160;2022-07-05T06:47:28;6.8;;;5.3;;
56271;SDS011;42177;48.914;18.160;2022-07-05T06:52:28;6.8;;;5.3;;
56271;SDS011;42177;48.914;18.160;2022-07-05T06:57:28;6.7;;;5.5;;
56271;SDS011;42177;48.914;18.160;2022-07-05T07:02:28;6.7;;;5.5;;
56271;SDS011;42177;48.914;18.160;2022-07-05T07:07:28;8.1;;;5.7;;
56271;SDS011;42177;48.914;18.160;2022-07-05T07:12:28;8.1;;;5.7;;
56271;SDS011;42177;48.914;18.160;2022-07-05T07:17:27;8.2;;;5.9;;
56271;SDS011;42177;48.914;18.160;2022-07-05T07:22:28;8.2;;;5.9;;
56271;SDS011;42177;48.914;18.160;2022-07-05T07:27:28;8;;;6.1;;
56271;SDS011;42177;48.914;18.160;2022-07-05T07:32:27;8;;;6.1;;
56271;SDS011;42177;48.914;18.160;2022-07-05T07:37:28;8.9;;;6;;
56271;SDS011;42177;48.914;18.160;2022-07-05T07:42:28;8.9;;;6;;
56271;SDS011;42177;48.914;18.160;2022-07-05T07:47:28;8.6;;;6.6;;
56271;SDS011;42177;48.914;18.160;2022-07-05T07:52:28;8.6;;;6.6;;
56271;SDS011;42177;48.914;18.160;2022-07-05T07:57:28;8.4;;;6.3;;
56271;SDS011;42177;48.914;18.160;2022-07-05T08:02:28;8.4;;;6.3;;
56271;SDS011;42177;48.914;18.160;2022-07-05T08:07:27;8.8;;;6.7;;
56271;SDS011;42177;48.914;18.160;2022-07-05T08:12:28;8.8;;;6.7;;
56271;SDS011;42177;48.914;18.160;2022-07-05T08:17:28;8.4;;;6.9;;
56271;SDS011;42177;48.914;18.160;2022-07-05T08:22:28;8.4;;;6.9;;
56271;SDS011;42177;48.914;18.160;2022-07-05T08:27:28;8.5;;;7.5;;
56271;SDS011;42177;48.914;18.160;2022-07-05T08:32:28;8.5;;;7.5;;
56271;SDS011;42177;48.914;18.160;2022-07-05T08:37:27;9.1;;;7.3;;
56271;SDS011;42177;48.914;18.160;2022-07-05T08:42:28;9.1;;;7.3;;
56271;SDS011;42177;48.914;18.160;2022-07-05T08:47:28;12.2;;;9.2;;
56271;SDS011;42177;48.914;18.160;2022-07-05T08:52:28;12.2;;;9.2;;
56271;SDS011;42177;48.914;18.160;2022-07-05T08:57:28;10.2;;;8.1;;
56271;SDS011;42177;48.914;18.160;2022-07-05T09:02:28;10.2;;;8.1;;
56271;SDS011;42177;48.914;18.160;2022-07-05T09:07:28;15.2;;;9;;
56271;SDS011;42177;48.914;18.160;2022-07-05T09:12:28;15.2;;;9;;
56271;SDS011;42177;48.914;18.160;2022-07-05T09:17:28;11.5;;;10.3;;
56271;SDS011;42177;48.914;18.160;2022-07-05T09:22:28;11.5;;;10.3;;
56271;SDS011;42177;48.914;18.160;2022-07-05T09:27:28;10.6;;;9.5;;
56271;SDS011;42177;48.914;18.160;2022-07-05T09:32:28;10.6;;;9.5;;
56271;SDS011;42177;48.914;18.160;2022-07-05T09:37:41;11.5;;;9.7;;
56271;SDS011;42177;48.914;18.160;2022-07-05T09:42:28;11.5;;;9.7;;
56271;SDS011;42177;48.914;18.160;2022-07-05T09:47:28;10.9;;;9.5;;
56271;SDS011;42177;48.914;18.160;2022-07-05T09:52:28;10.9;;;9.5;;
56271;SDS011;42177;48.914;18.160;2022-07-05T09:57:28;11.6;;;10.1;;
56271;SDS011;42177;48.914;18.160;2022-07-05T10:02:36;11.6;;;10.1;;
56271;SDS011;42177;48.914;18.160;2022-07-05T10:07:28;10.2;;;8.8;;
56271;SDS011;42177;48.914;18.160;2022-07-05T10:12:28;10.2;;;8.8;;
56271;SDS011;42177;48.914;18.160;2022-07-05T10:17:28;10.3;;;8.7;;
56271;SDS011;42177;48.914;18.160;2022-07-05T10:22:28;10.3;;;8.7;;
56271;SDS011;42177;48.914;18.160;2022-07-05T10:27:28;11.4;;;9.6;;
56271;SDS011;42177;48.914;18.160;2022-07-05T10:32:28;11.4;;;9.6;;
56271;SDS011;42177;48.914;18.160;2022-07-05T10:37:28;12.6;;;10.6;;
56271;SDS011;42177;48.914;18.160;2022-07-05T10:42:28;12.6;;;10.6;;
56271;SDS011;42177;48.914;18.160;2022-07-05T10:47:28;12.5;;;11.2;;
56271;SDS011;42177;48.914;18.160;2022-07-05T10:52:28;12.5;;;11.2;;
56271;SDS011;42177;48.914;18.160;2022-07-05T10:57:28;9.3;;;7.7;;
56271;SDS011;42177;48.914;18.160;2022-07-05T11:02:28;9.3;;;7.7;;
56271;SDS011;42177;48.914;18.160;2022-07-05T11:08:00;11.1;;;9.9;;
56271;SDS011;42177;48.914;18.160;2022-07-05T11:12:35;11.1;;;9.9;;
56271;SDS011;42177;48.914;18.160;2022-07-05T11:17:28;9.3;;;6.7;;
56271;SDS011;42177;48.914;18.160;2022-07-05T11:22:28;9.3;;;6.7;;
56271;SDS011;42177;48.914;18.160;2022-07-05T11:27:28;9.2;;;7.9;;
56271;SDS011;42177;48.914;18.160;2022-07-05T11:32:35;9.2;;;7.9;;
56271;SDS011;42177;48.914;18.160;2022-07-05T11:37:28;8.2;;;6.3;;
56271;SDS011;42177;48.914;18.160;2022-07-05T11:42:28;8.2;;;6.3;;
56271;SDS011;42177;48.914;18.160;2022-07-05T11:47:28;7.9;;;6.1;;
56271;SDS011;42177;48.914;18.160;2022-07-05T11:52:28;7.9;;;6.1;;
56271;SDS011;42177;48.914;18.160;2022-07-05T11:57:28;8;;;6.6;;
56271;SDS011;42177;48.914;18.160;2022-07-05T12:02:28;8;;;6.6;;
56271;SDS011;42177;48.914;18.160;2022-07-05T12:07:28;9.6;;;7.7;;
56271;SDS011;42177;48.914;18.160;2022-07-05T12:12:28;9.6;;;7.7;;
56271;SDS011;42177;48.914;18.160;2022-07-05T12:17:28;9.5;;;8.2;;
56271;SDS011;42177;48.914;18.160;2022-07-05T12:22:28;9.5;;;8.2;;
56271;SDS011;42177;48.914;18.160;2022-07-05T12:27:28;9;;;7.2;;
56271;SDS011;42177;48.914;18.160;2022-07-05T12:32:28;9;;;7.2;;
56271;SDS011;42177;48.914;18.160;2022-07-05T12:37:28;9.5;;;7.8;;
56271;SDS011;42177;48.914;18.160;2022-07-05T12:42:29;9.5;;;7.8;;
56271;SDS011;42177;48.914;18.160;2022-07-05T12:47:28;9;;;7.9;;
56271;SDS011;42177;48.914;18.160;2022-07-05T12:52:28;9;;;7.9;;
56271;SDS011;42177;48.914;18.160;2022-07-05T12:57:28;10.1;;;8.4;;
56271;SDS011;42177;48.914;18.160;2022-07-05T13:02:36;10.1;;;8.4;;
56271;SDS011;42177;48.914;18.160;2022-07-05T13:07:28;10.5;;;8.6;;
56271;SDS011;42177;48.914;18.160;2022-07-05T13:12:28;10.5;;;8.6;;
56271;SDS011;42177;48.914;18.160;2022-07-05T13:17:28;10.5;;;8.4;;
56271;SDS011;42177;48.914;18.160;2022-07-05T13:22:28;10.5;;;8.4;;
56271;SDS011;42177;48.914;18.160;2022-07-05T13:27:28;11.5;;;8.6;;
56271;SDS011;42177;48.914;18.160;2022-07-05T13:32:28;11.5;;;8.6;;
56271;SDS011;42177;48.914;18.160;2022-07-05T13:37:28;11.2;;;9.6;;
56271;SDS011;42177;48.914;18.160;2022-07-05T13:42:28;11.2;;;9.6;;
56271;SDS011;42177;48.914;18.160;2022-07-05T13:47:28;10;;;9;;
56271;SDS011;42177;48.914;18.160;2022-07-05T13:52:28;10;;;9;;
56271;SDS011;42177;48.914;18.160;2022-07-05T13:57:28;9.3;;;8.4;;
56271;SDS011;42177;48.914;18.160;2022-07-05T14:02:28;9.3;;;8.4;;
56271;SDS011;42177;48.914;18.160;2022-07-05T14:07:28;9.1;;;8.2;;
56271;SDS011;42177;48.914;18.160;2022-07-05T14:12:28;9.1;;;8.2;;
56271;SDS011;42177;48.914;18.160;2022-07-05T14:17:28;10.1;;;8;;
56271;SDS011;42177;48.914;18.160;2022-07-05T14:22:28;10.1;;;8;;
56271;SDS011;42177;48.914;18.160;2022-07-05T14:27:28;9.8;;;8.3;;
56271;SDS011;42177;48.914;18.160;2022-07-05T14:32:28;9.8;;;8.3;;
56271;SDS011;42177;48.914;18.160;2022-07-05T14:37:28;8;;;7;;
56271;SDS011;42177;48.914;18.160;2022-07-05T14:47:28;8.3;;;7.2;;
56271;SDS011;42177;48.914;18.160;2022-07-05T14:57:28;9.5;;;7.6;;
56271;SDS011;42177;48.914;18.160;2022-07-05T15:02:28;9.5;;;7.6;;
56271;SDS011;42177;48.914;18.160;2022-07-05T15:07:31;8.2;;;6.4;;
56271;SDS011;42177;48.914;18.160;2022-07-05T15:12:30;8.2;;;6.4;;
56271;SDS011;42177;48.914;18.160;2022-07-05T15:17:28;7.5;;;6.2;;
56271;SDS011;42177;48.914;18.160;2022-07-05T15:22:28;7.5;;;6.2;;
56271;SDS011;42177;48.914;18.160;2022-07-05T15:27:28;7.7;;;7;;
56271;SDS011;42177;48.914;18.160;2022-07-05T15:37:28;8.7;;;7.1;;
56271;SDS011;42177;48.914;18.160;2022-07-05T15:42:28;8.7;;;7.1;;
56271;SDS011;42177;48.914;18.160;2022-07-05T15:47:28;8.3;;;6.8;;
56271;SDS011;42177;48.914;18.160;2022-07-05T15:57:32;9.2;;;8.2;;
56271;SDS011;42177;48.914;18.160;2022-07-05T16:02:32;9.2;;;8.2;;
56271;SDS011;42177;48.914;18.160;2022-07-05T16:07:28;6;;;5.1;;
56271;SDS011;42177;48.914;18.160;2022-07-05T16:12:28;6;;;5.1;;
56271;SDS011;42177;48.914;18.160;2022-07-05T16:17:28;5.2;;;3.7;;
56271;SDS011;42177;48.914;18.160;2022-07-05T16:22:28;5.2;;;3.7;;
56271;SDS011;42177;48.914;18.160;2022-07-05T16:27:28;3.7;;;2.2;;
56271;SDS011;42177;48.914;18.160;2022-07-05T16:32:28;3.7;;;2.2;;
56271;SDS011;42177;48.914;18.160;2022-07-05T16:37:28;3.2;;;2;;
56271;SDS011;42177;48.914;18.160;2022-07-05T16:42:28;3.2;;;2;;
56271;SDS011;42177;48.914;18.160;2022-07-05T16:47:28;2.1;;;1.9;;
56271;SDS011;42177;48.914;18.160;2022-07-05T16:52:28;2.1;;;1.9;;
56271;SDS011;42177;48.914;18.160;2022-07-05T16:57:28;5.4;;;1.7;;
56271;SDS011;42177;48.914;18.160;2022-07-05T17:02:28;5.4;;;1.7;;
56271;SDS011;42177;48.914;18.160;2022-07-05T17:07:28;4.7;;;1.8;;
56271;SDS011;42177;48.914;18.160;2022-07-05T17:12:28;4.7;;;1.8;;
56271;SDS011;42177;48.914;18.160;2022-07-05T17:17:28;3.3;;;1.8;;
56271;SDS011;42177;48.914;18.160;2022-07-05T17:22:28;3.3;;;1.8;;
56271;SDS011;42177;48.914;18.160;2022-07-05T17:27:28;4;;;1.9;;
56271;SDS011;42177;48.914;18.160;2022-07-05T17:32:28;4;;;1.9;;
56271;SDS011;42177;48.914;18.160;2022-07-05T17:37:28;3.8;;;1.7;;
56271;SDS011;42177;48.914;18.160;2022-07-05T17:42:28;3.8;;;1.7;;
56271;SDS011;42177;48.914;18.160;2022-07-05T17:47:29;3;;;1.9;;
56271;SDS011;42177;48.914;18.160;2022-07-05T17:52:28;3;;;1.9;;
56271;SDS011;42177;48.914;18.160;2022-07-05T17:57:29;4.8;;;1.9;;
56271;SDS011;42177;48.914;18.160;2022-07-05T18:02:28;4.8;;;1.9;;
56271;SDS011;42177;48.914;18.160;2022-07-05T18:07:28;4.9;;;2;;
56271;SDS011;42177;48.914;18.160;2022-07-05T18:12:28;4.9;;;2;;
56271;SDS011;42177;48.914;18.160;2022-07-05T18:17:28;4.8;;;3.7;;
56271;SDS011;42177;48.914;18.160;2022-07-05T18:22:30;4.8;;;3.7;;
56271;SDS011;42177;48.914;18.160;2022-07-05T18:27:28;3.9;;;3;;
56271;SDS011;42177;48.914;18.160;2022-07-05T18:32:28;3.9;;;3;;
56271;SDS011;42177;48.914;18.160;2022-07-05T18:37:28;6.3;;;3.8;;
56271;SDS011;42177;48.914;18.160;2022-07-05T18:42:28;6.3;;;3.8;;
56271;SDS011;42177;48.914;18.160;2022-07-05T18:47:28;4.4;;;3.9;;
56271;SDS011;42177;48.914;18.160;2022-07-05T18:52:28;4.4;;;3.9;;
56271;SDS011;42177;48.914;18.160;2022-07-05T18:57:28;7;;;4.5;;
56271;SDS011;42177;48.914;18.160;2022-07-05T19:02:28;7;;;4.5;;
56271;SDS011;42177;48.914;18.160;2022-07-05T19:07:28;5.2;;;4.3;;
56271;SDS011;42177;48.914;18.160;2022-07-05T19:12:28;5.2;;;4.3;;
56271;SDS011;42177;48.914;18.160;2022-07-05T19:17:28;4.9;;;3.1;;
56271;SDS011;42177;48.914;18.160;2022-07-05T19:22:28;4.9;;;3.1;;
56271;SDS011;42177;48.914;18.160;2022-07-05T19:27:28;5.2;;;3.5;;
56271;SDS011;42177;48.914;18.160;2022-07-05T19:32:28;5.2;;;3.5;;
56271;SDS011;42177;48.914;18.160;2022-07-05T19:37:28;3.1;;;2.7;;
56271;SDS011;42177;48.914;18.160;2022-07-05T19:42:28;3.1;;;2.7;;
56271;SDS011;42177;48.914;18.160;2022-07-05T19:47:28;4.2;;;3;;
56271;SDS011;42177;48.914;18.160;2022-07-05T19:52:28;4.2;;;3;;
56271;SDS011;42177;48.914;18.160;2022-07-05T19:57:28;3.7;;;2.9;;
56271;SDS011;42177;48.914;18.160;2022-07-05T20:02:28;3.7;;;2.9;;
56271;SDS011;42177;48.914;18.160;2022-07-05T20:07:28;3.5;;;2.7;;
56271;SDS011;42177;48.914;18.160;2022-07-05T20:12:28;3.5;;;2.7;;
56271;SDS011;42177;48.914;18.160;2022-07-05T20:17:28;4.1;;;2.4;;
56271;SDS011;42177;48.914;18.160;2022-07-05T20:22:28;4.1;;;2.4;;
56271;SDS011;42177;48.914;18.160;2022-07-05T20:27:28;5.8;;;2.9;;
56271;SDS011;42177;48.914;18.160;2022-07-05T20:32:28;5.8;;;2.9;;
56271;SDS011;42177;48.914;18.160;2022-07-05T20:37:28;6.7;;;2.9;;
56271;SDS011;42177;48.914;18.160;2022-07-05T20:42:28;6.7;;;2.9;;
56271;SDS011;42177;48.914;18.160;2022-07-05T20:47:28;9.1;;;3.1;;
56271;SDS011;42177;48.914;18.160;2022-07-05T20:52:28;9.1;;;3.1;;
56271;SDS011;42177;48.914;18.160;2022-07-05T20:57:28;5.1;;;2.7;;
56271;SDS011;42177;48.914;18.160;2022-07-05T21:02:28;5.1;;;2.7;;
56271;SDS011;42177;48.914;18.160;2022-07-05T21:07:28;6.7;;;2.9;;
56271;SDS011;42177;48.914;18.160;2022-07-05T21:12:28;6.7;;;2.9;;
56271;SDS011;42177;48.914;18.160;2022-07-05T21:17:28;5.5;;;3.2;;
56271;SDS011;42177;48.914;18.160;2022-07-05T21:22:28;5.5;;;3.2;;
56271;SDS011;42177;48.914;18.160;2022-07-05T21:27:28;5.3;;;3.2;;
56271;SDS011;42177;48.914;18.160;2022-07-05T21:32:28;5.3;;;3.2;;
56271;SDS011;42177;48.914;18.160;2022-07-05T21:37:28;9.5;;;3.9;;
56271;SDS011;42177;48.914;18.160;2022-07-05T21:42:28;9.5;;;3.9;;
56271;SDS011;42177;48.914;18.160;2022-07-05T21:47:28;8.5;;;4;;
56271;SDS011;42177;48.914;18.160;2022-07-05T21:52:28;8.5;;;4;;
56271;SDS011;42177;48.914;18.160;2022-07-05T21:57:28;9.1;;;4.5;;
56271;SDS011;42177;48.914;18.160;2022-07-05T22:02:28;9.1;;;4.5;;
56271;SDS011;42177;48.914;18.160;2022-07-05T22:07:28;8.9;;;6.1;;
56271;SDS011;42177;48.914;18.160;2022-07-05T22:12:28;8.9;;;6.1;;
56271;SDS011;42177;48.914;18.160;2022-07-05T22:17:28;12.9;;;6.5;;
56271;SDS011;42177;48.914;18.160;2022-07-05T22:22:28;12.9;;;6.5;;
56271;SDS011;42177;48.914;18.160;2022-07-05T22:27:28;10.4;;;5.9;;
56271;SDS011;42177;48.914;18.160;2022-07-05T22:32:28;10.4;;;5.9;;
56271;SDS011;42177;48.914;18.160;2022-07-05T22:37:28;9.2;;;5.8;;
56271;SDS011;42177;48.914;18.160;2022-07-05T22:42:28;9.2;;;5.8;;
56271;SDS011;42177;48.914;18.160;2022-07-05T22:47:28;7.9;;;5.3;;
56271;SDS011;42177;48.914;18.160;2022-07-05T22:52:28;7.9;;;5.3;;
56271;SDS011;42177;48.914;18.160;2022-07-05T22:57:28;10.3;;;5.1;;
56271;SDS011;42177;48.914;18.160;2022-07-05T23:02:28;10.3;;;5.1;;
56271;SDS011;42177;48.914;18.160;2022-07-05T23:07:28;12.5;;;5.5;;
56271;SDS011;42177;48.914;18.160;2022-07-05T23:12:28;12.5;;;5.5;;
56271;SDS011;42177;48.914;18.160;2022-07-05T23:17:28;10.6;;;6.1;;
56271;SDS011;42177;48.914;18.160;2022-07-05T23:22:28;10.6;;;6.1;;
56271;SDS011;42177;48.914;18.160;2022-07-05T23:27:29;12.4;;;6.5;;
56271;SDS011;42177;48.914;18.160;2022-07-05T23:32:28;12.4;;;6.5;;
56271;SDS011;42177;48.914;18.160;2022-07-05T23:37:28;13.3;;;7.4;;
56271;SDS011;42177;48.914;18.160;2022-07-05T23:42:28;13.3;;;7.4;;
56271;SDS011;42177;48.914;18.160;2022-07-05T23:47:28;7.6;;;6.4;;
56271;SDS011;42177;48.914;18.160;2022-07-05T23:52:28;7.6;;;6.4;;
56271;SDS011;42177;48.914;18.160;2022-07-05T23:57:28;12.8;;;7.1;;
